createdAt,value
2022-08-19T00:04:53.589Z,19.70
2022-08-19T00:09:57.505Z,19.64
2022-08-19T00:15:01.630Z,19.59
2022-08-19T00:20:08.195Z,19.52
2022-08-19T00:25:12.453Z,19.49
2022-08-19T00:30:16.550Z,19.45
2022-08-19T00:35:21.752Z,19.46
2022-08-19T00:40:28.448Z,19.39
2022-08-19T00:45:33.205Z,19.39
2022-08-19T00:50:51.874Z,19.32
2022-08-19T00:55:59.542Z,19.23
2022-08-19T01:01:04.272Z,19.19
2022-08-19T01:06:09.676Z,19.12
2022-08-19T01:11:14.301Z,19.12
2022-08-19T01:16:20.933Z,18.99
2022-08-19T01:21:32.903Z,19.02
2022-08-19T01:26:44.576Z,18.96
2022-08-19T01:31:48.320Z,18.88
2022-08-19T01:36:52.290Z,18.81
2022-08-19T01:41:57.502Z,18.72
2022-08-19T01:47:01.316Z,18.64
2022-08-19T01:52:06.744Z,18.65
2022-08-19T01:57:16.651Z,18.60
2022-08-19T02:02:20.686Z,18.58
2022-08-19T02:07:25.072Z,18.54
2022-08-19T02:12:30.852Z,18.50
2022-08-19T02:17:34.954Z,18.45
2022-08-19T02:22:38.701Z,18.28
2022-08-19T02:27:45.087Z,18.29
2022-08-19T02:32:49.014Z,18.31
2022-08-19T02:38:10.444Z,18.32
2022-08-19T02:43:16.616Z,18.27
2022-08-19T02:48:22.056Z,18.25
2022-08-19T02:53:29.786Z,18.25
2022-08-19T02:58:35.764Z,18.25
2022-08-19T03:03:39.951Z,18.20
2022-08-19T03:08:46.815Z,18.19
2022-08-19T03:13:52.925Z,18.16
2022-08-19T03:19:00.882Z,18.10
2022-08-19T03:24:08.321Z,18.07
2022-08-19T03:29:14.428Z,18.02
2022-08-19T03:34:21.293Z,17.91
2022-08-19T03:39:26.015Z,17.90
2022-08-19T03:44:33.296Z,17.85
2022-08-19T03:49:37.605Z,17.85
2022-08-19T03:54:41.420Z,17.79
2022-08-19T03:59:46.446Z,17.77
2022-08-19T04:04:50.168Z,17.75
2022-08-19T04:09:54.320Z,17.72
2022-08-19T04:14:59.511Z,17.64
2022-08-19T04:20:07.019Z,17.52
2022-08-19T04:25:12.189Z,17.43
2022-08-19T04:30:18.647Z,17.46
2022-08-19T04:35:24.957Z,17.37
2022-08-19T04:40:46.390Z,17.36
2022-08-19T04:45:52.804Z,17.26
2022-08-19T04:51:00.847Z,17.29
2022-08-19T04:56:09.003Z,17.33
2022-08-19T05:01:16.390Z,17.34
2022-08-19T05:06:22.701Z,17.27
2022-08-19T05:11:30.544Z,17.16
2022-08-19T05:16:36.013Z,17.17
2022-08-19T05:21:58.449Z,17.22
2022-08-19T05:27:03.577Z,17.23
2022-08-19T05:32:09.800Z,17.25
2022-08-19T05:37:13.739Z,17.22
2022-08-19T05:42:17.802Z,17.12
2022-08-19T05:47:24.082Z,17.18
2022-08-19T05:52:28.144Z,17.25
2022-08-19T05:57:32.041Z,17.32
2022-08-19T06:02:37.396Z,17.41
2022-08-19T06:07:41.866Z,17.22
2022-08-19T06:12:45.926Z,17.48
2022-08-19T06:17:51.140Z,17.67
2022-08-19T06:22:55.182Z,17.61
2022-08-19T06:28:14.467Z,17.54
2022-08-19T06:33:20.496Z,17.78
2022-08-19T06:38:24.498Z,17.93
2022-08-19T06:43:29.185Z,18.08
2022-08-19T06:48:38.995Z,18.08
2022-08-19T06:58:55.388Z,18.23
2022-08-19T07:04:02.484Z,18.39
2022-08-19T07:09:08.263Z,18.41
2022-08-19T07:14:16.658Z,18.44
2022-08-19T07:19:27.246Z,18.54
2022-08-19T07:24:33.538Z,18.72
2022-08-19T07:29:39.195Z,18.82
2022-08-19T07:34:44.378Z,18.99
2022-08-19T07:39:48.176Z,18.83
2022-08-19T07:44:51.888Z,19.05
2022-08-19T07:49:57.008Z,19.10
2022-08-19T07:55:04.583Z,18.95
2022-08-19T08:00:09.822Z,19.03
2022-08-19T08:05:35.625Z,19.04
2022-08-19T08:10:39.612Z,19.42
2022-08-19T08:15:46.099Z,19.40
2022-08-19T08:20:51.251Z,19.56
2022-08-19T08:25:57.562Z,19.55
2022-08-19T08:31:01.663Z,19.58
2022-08-19T08:36:08.347Z,19.68
2022-08-19T08:41:21.255Z,19.72
2022-08-19T08:46:32.396Z,19.74
2022-08-19T08:56:49.545Z,19.61
2022-08-19T09:01:55.535Z,19.57
2022-08-19T09:07:22.881Z,19.65
2022-08-19T09:12:43.055Z,19.64
2022-08-19T09:17:52.097Z,19.91
2022-08-19T09:22:57.300Z,20.07
2022-08-19T09:28:05.858Z,20.18
2022-08-19T09:33:25.959Z,20.12
2022-08-19T09:38:31.835Z,20.15
2022-08-19T09:43:44.611Z,20.24
2022-08-19T09:48:53.111Z,20.38
2022-08-19T09:54:02.375Z,20.46
2022-08-19T09:59:08.767Z,20.62
2022-08-19T10:04:20.305Z,20.77
2022-08-19T10:09:33.817Z,20.96
2022-08-19T10:14:38.442Z,21.20
2022-08-19T10:19:43.012Z,21.43
2022-08-19T10:25:00.389Z,21.55
2022-08-19T10:30:05.234Z,21.53
2022-08-19T10:35:16.060Z,21.68
2022-08-19T10:40:27.759Z,21.88
2022-08-19T10:45:31.501Z,22.36
2022-08-19T10:51:01.726Z,22.72
2022-08-19T10:56:24.812Z,23.11
2022-08-19T11:01:30.831Z,23.85
2022-08-19T11:06:34.660Z,24.43
2022-08-19T11:11:41.829Z,24.33
2022-08-19T11:16:45.813Z,24.16
2022-08-19T11:21:50.641Z,23.58
2022-08-19T11:27:03.581Z,23.61
2022-08-19T11:32:10.904Z,23.72
2022-08-19T11:37:14.716Z,23.89
2022-08-19T11:42:37.322Z,24.29
2022-08-19T11:47:41.147Z,23.91
2022-08-19T11:52:46.168Z,24.17
2022-08-19T11:57:51.287Z,23.89
2022-08-19T12:02:55.758Z,23.83
2022-08-19T12:07:59.615Z,23.73
2022-08-19T12:13:05.000Z,23.68
2022-08-19T12:18:10.455Z,23.45
2022-08-19T12:23:14.229Z,23.16
2022-08-19T12:28:20.272Z,23.38
2022-08-19T12:33:25.627Z,23.22
2022-08-19T12:38:29.843Z,23.29
2022-08-19T12:43:36.275Z,23.14
2022-08-19T12:48:42.547Z,23.35
2022-08-19T12:53:46.348Z,23.40
2022-08-19T12:58:52.772Z,23.58
2022-08-19T13:03:56.935Z,23.56
2022-08-19T13:09:00.698Z,23.42
2022-08-19T13:14:06.125Z,23.60
2022-08-19T13:19:09.856Z,23.59
2022-08-19T13:24:13.809Z,23.95
2022-08-19T13:29:36.445Z,24.03
2022-08-19T13:34:40.362Z,24.21
2022-08-19T13:39:44.156Z,25.37
2022-08-19T13:44:49.480Z,25.40
2022-08-19T13:49:53.599Z,25.44
2022-08-19T13:54:57.518Z,25.59
2022-08-19T14:00:03.323Z,25.89
2022-08-19T14:05:12.107Z,25.59
2022-08-19T14:10:16.060Z,25.56
2022-08-19T14:15:21.014Z,25.19
2022-08-19T14:20:25.892Z,25.26
2022-08-19T14:25:32.349Z,25.16
2022-08-19T14:30:39.200Z,25.27
2022-08-19T14:35:45.830Z,25.32
2022-08-19T14:40:49.956Z,25.30
2022-08-19T14:45:55.310Z,25.28
2022-08-19T14:50:59.064Z,25.20
2022-08-19T14:56:03.611Z,24.99
2022-08-19T15:01:09.564Z,24.41
2022-08-19T15:06:13.339Z,23.95
2022-08-19T15:11:21.968Z,23.57
2022-08-19T15:16:28.710Z,23.58
2022-08-19T15:21:33.387Z,23.64
2022-08-19T15:26:37.466Z,23.58
2022-08-19T15:31:42.522Z,23.57
2022-08-19T15:36:46.457Z,23.41
2022-08-19T15:41:50.197Z,23.27
2022-08-19T15:46:55.387Z,23.12
2022-08-19T15:52:00.198Z,23.07
2022-08-19T15:57:21.790Z,22.94
2022-08-19T16:02:46.469Z,22.89
2022-08-19T16:07:51.051Z,22.92
2022-08-19T16:12:55.189Z,22.76
2022-08-19T16:18:02.378Z,22.82
2022-08-19T16:23:06.259Z,22.61
2022-08-19T16:28:10.734Z,22.66
2022-08-19T16:33:22.856Z,22.18
2022-08-19T16:38:27.644Z,22.31
2022-08-19T16:43:31.947Z,22.44
2022-08-19T16:48:42.876Z,22.49
2022-08-19T16:53:46.651Z,22.39
2022-08-19T16:58:50.605Z,22.46
2022-08-19T17:03:56.442Z,22.42
2022-08-19T17:09:02.705Z,22.32
2022-08-19T17:14:07.207Z,22.11
2022-08-19T17:19:12.371Z,22.09
2022-08-19T17:24:16.530Z,22.15
2022-08-19T17:29:20.243Z,22.03
2022-08-19T17:34:25.484Z,22.17
2022-08-19T17:39:29.764Z,22.16
2022-08-19T17:44:36.484Z,22.11
2022-08-19T17:49:41.594Z,22.09
2022-08-19T17:54:45.613Z,21.87
2022-08-19T17:59:49.562Z,21.93
2022-08-19T18:04:54.739Z,21.91
2022-08-19T18:09:58.688Z,21.82
2022-08-19T18:15:08.217Z,21.74
2022-08-19T18:20:15.927Z,21.71
2022-08-19T18:25:24.201Z,21.65
2022-08-19T18:30:31.568Z,21.50
2022-08-19T18:35:38.902Z,21.47
2022-08-19T18:41:00.451Z,21.45
2022-08-19T18:46:21.904Z,21.39
2022-08-19T18:51:31.536Z,21.38
2022-08-19T18:56:37.505Z,21.34
2022-08-19T19:01:48.127Z,21.31
2022-08-19T19:06:54.418Z,21.29
2022-08-19T19:12:00.601Z,21.30
2022-08-19T19:17:07.292Z,21.26
2022-08-19T19:22:14.761Z,21.20
2022-08-19T19:27:21.273Z,21.22
2022-08-19T19:32:28.357Z,21.16
2022-08-19T19:37:33.747Z,21.16
2022-08-19T19:42:37.771Z,21.11
2022-08-19T19:47:42.657Z,21.03
2022-08-19T19:52:47.738Z,21.01
2022-08-19T19:57:53.684Z,21.00
2022-08-19T20:02:58.005Z,21.00
2022-08-19T20:08:20.792Z,20.95
2022-08-19T20:13:24.639Z,20.94
2022-08-19T20:18:28.687Z,20.86
2022-08-19T20:23:34.721Z,20.82
2022-08-19T20:28:38.568Z,20.73
2022-08-19T20:33:49.307Z,20.69
2022-08-19T20:38:54.466Z,20.57
2022-08-19T20:43:59.809Z,20.59
2022-08-19T20:49:03.629Z,20.57
2022-08-19T20:54:11.033Z,20.47
2022-08-19T20:59:14.792Z,20.46
2022-08-19T21:04:18.843Z,20.44
2022-08-19T21:09:23.922Z,20.40
2022-08-19T21:14:27.684Z,20.39
2022-08-19T21:19:31.500Z,20.34
2022-08-19T21:24:37.796Z,20.34
2022-08-19T21:29:42.252Z,20.34
2022-08-19T21:34:46.993Z,20.36
2022-08-19T21:39:52.110Z,20.34
2022-08-19T21:44:56.074Z,20.31
2022-08-19T21:49:59.803Z,20.31
2022-08-19T21:55:06.323Z,20.28
2022-08-19T22:00:15.357Z,20.26
2022-08-19T22:05:23.171Z,20.26
2022-08-19T22:10:30.298Z,20.28
2022-08-19T22:15:34.183Z,20.28
2022-08-19T22:20:38.128Z,20.24
2022-08-19T22:25:46.649Z,20.26
2022-08-19T22:30:51.242Z,20.28
2022-08-19T22:35:55.109Z,20.20
2022-08-19T22:41:00.190Z,20.20
2022-08-19T22:46:06.447Z,20.15
2022-08-19T22:51:38.816Z,20.08
2022-08-19T22:56:44.297Z,20.06
2022-08-19T23:01:48.048Z,20.05
2022-08-19T23:06:52.887Z,20.02
2022-08-19T23:11:58.277Z,20.00
2022-08-19T23:17:02.409Z,19.95
2022-08-19T23:22:06.406Z,19.95
2022-08-19T23:27:28.990Z,19.90
2022-08-19T23:32:35.851Z,19.83
2022-08-19T23:37:39.530Z,19.83
2022-08-19T23:42:46.679Z,19.84
2022-08-19T23:47:50.433Z,19.86
2022-08-19T23:52:56.765Z,19.87
2022-08-19T23:58:02.066Z,19.89
